createdAt,value
2022-12-08T00:00:33.614Z,5.40
2022-12-08T00:03:06.772Z,5.50
2022-12-08T00:05:57.960Z,5.50
2022-12-08T00:08:44.365Z,5.60
2022-12-08T00:11:13.360Z,5.50
2022-12-08T00:13:42.455Z,5.50
2022-12-08T00:16:11.603Z,5.30
2022-12-08T00:18:41.450Z,5.50
2022-12-08T00:21:09.818Z,5.50
2022-12-08T00:23:38.472Z,5.60
2022-12-08T00:26:08.297Z,5.50
2022-12-08T00:28:37.190Z,5.40
2022-12-08T00:31:10.180Z,5.50
2022-12-08T00:33:38.829Z,5.30
2022-12-08T00:36:11.770Z,5.30
2022-12-08T00:38:41.724Z,5.40
2022-12-08T00:41:14.090Z,5.30
2022-12-08T00:43:42.848Z,5.40
2022-12-08T00:46:13.188Z,5.30
2022-12-08T00:48:44.196Z,5.30
2022-12-08T00:51:14.345Z,5.30
2022-12-08T00:53:42.870Z,5.30
2022-12-08T00:56:11.357Z,5.20
2022-12-08T00:58:41.073Z,5.40
2022-12-08T01:01:11.676Z,5.40
2022-12-08T01:03:45.475Z,5.40
2022-12-08T01:06:23.822Z,5.30
2022-12-08T01:08:52.479Z,5.40
2022-12-08T01:11:23.246Z,5.20
2022-12-08T01:13:53.127Z,5.40
2022-12-08T01:16:23.065Z,5.30
2022-12-08T01:19:05.884Z,5.30
2022-12-08T01:21:36.421Z,5.30
2022-12-08T01:24:06.844Z,5.40
2022-12-08T01:26:36.301Z,5.10
2022-12-08T01:29:05.347Z,5.40
2022-12-08T01:31:35.910Z,5.30
2022-12-08T01:34:07.062Z,5.10
2022-12-08T01:36:42.261Z,5.30
2022-12-08T01:39:16.029Z,5.10
2022-12-08T01:41:45.711Z,5.30
2022-12-08T01:44:52.418Z,5.30
2022-12-08T01:47:23.890Z,5.30
2022-12-08T01:49:58.873Z,5.30
2022-12-08T01:52:34.685Z,5.30
2022-12-08T01:55:07.614Z,5.20
2022-12-08T01:57:42.194Z,5.20
2022-12-08T02:00:15.266Z,5.10
2022-12-08T02:02:54.724Z,5.40
2022-12-08T02:05:27.859Z,5.40
2022-12-08T02:07:59.817Z,5.40
2022-12-08T02:10:36.721Z,5.30
2022-12-08T02:13:07.519Z,5.10
2022-12-08T02:15:54.107Z,5.20
2022-12-08T02:18:39.891Z,5.30
2022-12-08T02:21:32.084Z,5.40
2022-12-08T02:24:30.285Z,5.40
2022-12-08T02:27:33.630Z,5.30
2022-12-08T02:30:26.634Z,5.40
2022-12-08T02:33:55.274Z,5.40
2022-12-08T02:36:45.257Z,5.50
2022-12-08T02:39:42.580Z,5.30
2022-12-08T02:42:39.021Z,5.50
2022-12-08T02:45:32.978Z,5.30
2022-12-08T02:48:20.958Z,5.40
2022-12-08T02:50:53.485Z,5.60
2022-12-08T02:53:23.148Z,5.30
2022-12-08T02:56:02.548Z,5.30
2022-12-08T02:58:43.245Z,5.30
2022-12-08T03:01:37.595Z,5.50
2022-12-08T03:04:15.761Z,5.40
2022-12-08T03:06:52.352Z,5.60
2022-12-08T03:09:25.799Z,5.30
2022-12-08T03:12:00.488Z,5.70
2022-12-08T03:14:31.851Z,5.40
2022-12-08T03:17:01.881Z,5.60
2022-12-08T03:19:36.214Z,5.40
2022-12-08T03:22:08.143Z,5.50
2022-12-08T03:24:38.897Z,5.50
2022-12-08T03:27:09.918Z,5.60
2022-12-08T03:29:38.181Z,5.40
2022-12-08T03:32:12.713Z,5.60
2022-12-08T03:34:44.047Z,5.50
2022-12-08T03:37:15.290Z,5.70
2022-12-08T03:39:44.121Z,5.50
2022-12-08T03:42:12.776Z,5.70
2022-12-08T03:44:41.355Z,5.50
2022-12-08T03:47:12.080Z,5.60
2022-12-08T03:49:40.793Z,5.60
2022-12-08T03:52:09.210Z,5.40
2022-12-08T03:54:38.882Z,5.70
2022-12-08T03:57:07.358Z,5.40
2022-12-08T03:59:35.727Z,5.60
2022-12-08T04:02:07.068Z,5.60
2022-12-08T04:04:35.731Z,5.60
2022-12-08T04:07:04.446Z,5.70
2022-12-08T04:09:32.949Z,5.80
2022-12-08T04:12:02.660Z,5.70
2022-12-08T04:14:31.125Z,5.80
2022-12-08T04:16:59.567Z,5.70
2022-12-08T04:19:28.087Z,5.80
2022-12-08T04:21:56.932Z,5.80
2022-12-08T04:24:25.232Z,5.70
2022-12-08T04:26:53.718Z,5.70
2022-12-08T04:29:23.358Z,5.70
2022-12-08T04:31:52.155Z,5.70
2022-12-08T04:34:20.527Z,5.80
2022-12-08T04:36:48.831Z,5.70
2022-12-08T04:39:17.241Z,5.90
2022-12-08T04:41:45.590Z,5.80
2022-12-08T04:44:13.906Z,5.90
2022-12-08T04:46:44.006Z,5.90
2022-12-08T04:49:12.325Z,5.80
2022-12-08T04:51:44.114Z,5.80
2022-12-08T04:54:12.315Z,6.00
2022-12-08T04:56:41.311Z,5.80
2022-12-08T04:59:09.581Z,5.80
2022-12-08T05:01:39.262Z,6.00
2022-12-08T05:04:09.022Z,5.60
2022-12-08T05:06:37.416Z,5.80
2022-12-08T05:09:06.385Z,5.80
2022-12-08T05:11:35.537Z,5.80
2022-12-08T05:14:06.063Z,5.70
2022-12-08T05:16:36.125Z,5.80
2022-12-08T05:19:04.816Z,5.90
2022-12-08T05:21:34.841Z,5.70
2022-12-08T05:24:03.181Z,5.80
2022-12-08T05:26:31.734Z,5.70
2022-12-08T05:29:00.049Z,5.70
2022-12-08T05:31:28.764Z,5.50
2022-12-08T05:34:02.521Z,5.60
2022-12-08T05:36:31.760Z,5.50
2022-12-08T05:39:01.485Z,5.50
2022-12-08T05:41:31.362Z,5.50
2022-12-08T05:43:59.984Z,5.60
2022-12-08T05:46:29.075Z,5.50
2022-12-08T05:49:00.084Z,5.40
2022-12-08T05:51:29.838Z,5.50
2022-12-08T05:53:59.573Z,5.40
2022-12-08T05:56:30.987Z,5.50
2022-12-08T05:58:59.374Z,5.40
2022-12-08T06:01:30.192Z,5.30
2022-12-08T06:04:01.748Z,5.40
2022-12-08T06:06:31.441Z,5.50
2022-12-08T06:09:00.400Z,5.30
2022-12-08T06:11:32.388Z,5.30
2022-12-08T06:14:03.615Z,5.30
2022-12-08T06:16:32.412Z,5.20
2022-12-08T06:19:00.785Z,5.40
2022-12-08T06:21:30.851Z,5.50
2022-12-08T06:23:59.837Z,5.30
2022-12-08T06:26:31.246Z,5.20
2022-12-08T06:29:07.263Z,5.10
2022-12-08T06:31:35.902Z,5.30
2022-12-08T06:34:06.432Z,5.40
2022-12-08T06:36:35.542Z,5.10
2022-12-08T06:39:04.569Z,5.30
2022-12-08T06:41:56.236Z,5.20
2022-12-08T06:44:24.813Z,5.10
2022-12-08T06:46:53.384Z,5.10
2022-12-08T06:49:21.896Z,5.10
2022-12-08T06:51:50.613Z,4.90
2022-12-08T06:54:19.107Z,5.10
2022-12-08T06:56:48.736Z,5.00
2022-12-08T06:59:19.575Z,5.20
2022-12-08T07:01:51.129Z,5.00
2022-12-08T07:04:19.734Z,4.90
2022-12-08T07:06:47.996Z,5.00
2022-12-08T07:09:16.657Z,5.10
2022-12-08T07:11:45.268Z,5.10
2022-12-08T07:14:15.376Z,5.00
2022-12-08T07:16:44.366Z,5.00
2022-12-08T07:19:14.736Z,5.10
2022-12-08T07:21:43.184Z,5.10
2022-12-08T07:24:11.952Z,5.10
2022-12-08T07:26:41.826Z,5.30
2022-12-08T07:29:20.498Z,5.20
2022-12-08T07:31:54.949Z,5.20
2022-12-08T07:34:23.299Z,5.20
2022-12-08T07:36:52.194Z,5.10
2022-12-08T07:39:26.222Z,5.20
2022-12-08T07:41:54.704Z,5.20
2022-12-08T07:44:24.499Z,5.00
2022-12-08T07:46:52.888Z,5.30
2022-12-08T07:49:21.529Z,5.30
2022-12-08T07:51:49.822Z,5.20
2022-12-08T07:54:18.203Z,5.30
2022-12-08T07:56:46.522Z,5.20
2022-12-08T07:59:15.267Z,5.20
2022-12-08T08:01:56.306Z,5.10
2022-12-08T08:04:35.993Z,5.30
2022-12-08T08:07:04.606Z,5.40
2022-12-08T08:09:36.163Z,5.50
2022-12-08T08:12:30.264Z,5.40
2022-12-08T08:14:55.410Z,5.40
2022-12-08T08:17:25.227Z,5.10
2022-12-08T08:19:56.014Z,5.40
2022-12-08T08:22:25.848Z,5.40
2022-12-08T08:24:57.104Z,5.60
2022-12-08T08:27:26.870Z,5.40
2022-12-08T08:29:55.319Z,5.50
2022-12-08T08:32:25.062Z,5.50
2022-12-08T08:34:53.820Z,5.60
2022-12-08T08:37:22.185Z,5.60
2022-12-08T08:39:51.766Z,5.60
2022-12-08T08:42:20.263Z,5.60
2022-12-08T08:44:49.023Z,5.70
2022-12-08T08:47:17.901Z,5.70
2022-12-08T08:49:47.714Z,5.60
2022-12-08T08:52:16.532Z,5.70
2022-12-08T08:54:45.223Z,5.90
2022-12-08T08:57:13.572Z,5.80
2022-12-08T08:59:42.179Z,5.80
2022-12-08T09:02:18.147Z,5.80
2022-12-08T09:04:48.237Z,5.70
2022-12-08T09:07:18.208Z,5.90
2022-12-08T09:09:46.730Z,5.90
2022-12-08T09:12:15.110Z,5.90
2022-12-08T09:14:45.558Z,5.70
2022-12-08T09:17:14.118Z,5.80
2022-12-08T09:19:42.690Z,5.90
2022-12-08T09:22:12.469Z,5.90
2022-12-08T09:24:43.595Z,5.80
2022-12-08T09:27:12.457Z,5.70
2022-12-08T09:29:41.024Z,5.80
2022-12-08T09:32:09.455Z,5.80
2022-12-08T09:34:38.201Z,5.90
2022-12-08T09:37:06.551Z,5.90
2022-12-08T09:39:36.989Z,5.70
2022-12-08T09:42:07.787Z,6.00
2022-12-08T09:44:55.021Z,5.80
2022-12-08T09:47:29.475Z,5.90
2022-12-08T09:50:08.576Z,5.80
2022-12-08T09:52:44.330Z,5.90
2022-12-08T09:55:23.381Z,6.00
2022-12-08T09:58:01.229Z,6.00
2022-12-08T10:00:30.150Z,6.10
2022-12-08T10:03:03.056Z,6.00
2022-12-08T10:05:38.317Z,5.90
2022-12-08T10:08:17.808Z,6.10
2022-12-08T10:10:49.623Z,6.00
2022-12-08T10:13:25.607Z,6.20
2022-12-08T10:16:03.307Z,6.10
2022-12-08T10:18:35.061Z,6.00
2022-12-08T10:21:14.849Z,6.20
2022-12-08T10:23:47.148Z,6.30
2022-12-08T10:26:19.545Z,6.30
2022-12-08T10:28:51.290Z,6.30
2022-12-08T10:31:21.754Z,6.20
2022-12-08T10:33:57.923Z,6.50
2022-12-08T10:36:46.302Z,6.40
2022-12-08T10:39:33.866Z,6.30
2022-12-08T10:42:09.233Z,6.40
2022-12-08T10:44:51.355Z,6.50
2022-12-08T10:47:22.827Z,6.70
2022-12-08T10:50:20.241Z,6.60
2022-12-08T10:52:57.235Z,6.60
2022-12-08T10:55:26.426Z,6.60
2022-12-08T10:57:56.528Z,6.80
2022-12-08T11:00:28.742Z,6.80
2022-12-08T11:03:00.393Z,6.70
2022-12-08T11:05:32.749Z,6.70
2022-12-08T11:08:02.861Z,6.70
2022-12-08T11:10:37.108Z,6.90
2022-12-08T11:13:12.651Z,6.70
2022-12-08T11:15:41.594Z,6.70
2022-12-08T11:18:22.978Z,6.80
2022-12-08T11:20:59.931Z,6.70
2022-12-08T11:23:31.066Z,6.90
2022-12-08T11:26:06.033Z,6.70
2022-12-08T11:28:36.255Z,6.80
2022-12-08T11:31:13.279Z,6.80
2022-12-08T11:33:44.071Z,6.90
2022-12-08T11:36:16.559Z,7.00
2022-12-08T11:38:48.384Z,6.80
2022-12-08T11:41:20.130Z,7.00
2022-12-08T11:43:56.548Z,6.90
2022-12-08T11:46:28.469Z,7.10
2022-12-08T11:49:06.197Z,7.10
2022-12-08T11:51:39.034Z,7.00
2022-12-08T11:54:16.952Z,7.10
2022-12-08T11:56:48.736Z,7.20
2022-12-08T11:59:25.082Z,7.10
2022-12-08T12:01:53.752Z,7.20
2022-12-08T12:04:29.342Z,7.10
2022-12-08T12:07:37.776Z,7.10
2022-12-08T12:10:39.068Z,7.30
2022-12-08T12:13:19.655Z,7.30
2022-12-08T12:16:21.492Z,7.10
2022-12-08T12:18:52.936Z,7.20
2022-12-08T12:21:27.325Z,7.20
2022-12-08T12:23:58.318Z,7.20
2022-12-08T12:26:29.594Z,7.20
2022-12-08T12:29:03.016Z,7.30
2022-12-08T12:31:36.643Z,7.20
2022-12-08T12:34:09.644Z,7.20
2022-12-08T12:36:58.185Z,7.20
2022-12-08T12:39:30.629Z,7.20
2022-12-08T12:42:02.024Z,7.20
2022-12-08T12:44:43.435Z,7.10
2022-12-08T12:47:16.510Z,7.10
2022-12-08T12:50:08.262Z,7.10
2022-12-08T12:52:49.999Z,7.10
2022-12-08T12:55:24.224Z,7.30
2022-12-08T12:57:55.108Z,7.30
2022-12-08T13:00:25.936Z,7.00
2022-12-08T13:02:58.654Z,7.10
2022-12-08T13:05:28.839Z,7.20
2022-12-08T13:08:00.498Z,7.10
2022-12-08T13:10:32.759Z,7.10
2022-12-08T13:13:22.094Z,7.10
2022-12-08T13:15:52.811Z,7.20
2022-12-08T13:18:26.962Z,7.20
2022-12-08T13:21:03.626Z,7.10
2022-12-08T13:23:47.095Z,7.10
2022-12-08T13:26:21.745Z,7.20
2022-12-08T13:29:18.230Z,7.10
2022-12-08T13:31:51.865Z,7.10
2022-12-08T13:34:29.592Z,7.20
2022-12-08T13:37:08.484Z,7.20
2022-12-08T13:39:50.223Z,7.30
2022-12-08T13:42:25.066Z,7.10
2022-12-08T13:48:21.552Z,7.00
2022-12-08T13:57:02.577Z,7.10
2022-12-08T13:59:29.284Z,7.10
2022-12-08T14:02:00.203Z,7.00
2022-12-08T14:05:16.388Z,6.90
2022-12-08T14:07:20.207Z,7.00
2022-12-08T14:09:48.862Z,7.00
2022-12-08T14:12:21.626Z,7.00
2022-12-08T14:15:08.354Z,7.10
2022-12-08T14:17:37.264Z,7.00
2022-12-08T14:20:26.776Z,6.90
2022-12-08T14:22:58.931Z,6.90
2022-12-08T14:25:29.324Z,6.90
2022-12-08T14:28:01.117Z,6.80
2022-12-08T14:30:36.268Z,7.10
2022-12-08T14:33:05.926Z,7.10
2022-12-08T14:35:35.541Z,6.90
2022-12-08T14:38:06.893Z,7.00
2022-12-08T14:40:37.179Z,7.00
2022-12-08T14:43:16.501Z,6.90
2022-12-08T14:45:50.796Z,6.80
2022-12-08T14:48:20.845Z,7.00
2022-12-08T14:51:02.009Z,6.90
2022-12-08T14:53:39.699Z,6.90
2022-12-08T14:56:15.818Z,6.80
2022-12-08T14:58:45.093Z,6.70
2022-12-08T15:01:17.216Z,6.80
2022-12-08T15:03:50.920Z,6.80
2022-12-08T15:06:24.992Z,6.70
2022-12-08T15:09:00.019Z,6.70
2022-12-08T15:11:37.911Z,6.70
2022-12-08T15:14:30.575Z,6.60
2022-12-08T15:16:59.502Z,6.50
2022-12-08T15:19:31.370Z,6.40
2022-12-08T15:22:09.599Z,6.50
2022-12-08T15:24:40.868Z,6.40
2022-12-08T15:27:17.451Z,6.40
2022-12-08T15:29:48.413Z,6.40
2022-12-08T15:32:20.004Z,6.60
2022-12-08T15:34:48.414Z,6.40
2022-12-08T15:37:22.992Z,6.50
2022-12-08T15:39:53.793Z,6.40
2022-12-08T15:42:22.507Z,6.40
2022-12-08T15:44:50.914Z,6.40
2022-12-08T15:47:21.478Z,6.50
2022-12-08T15:49:52.848Z,6.30
2022-12-08T15:52:23.672Z,6.40
2022-12-08T15:54:54.961Z,6.20
2022-12-08T15:58:04.049Z,6.40
2022-12-08T16:00:51.691Z,6.30
2022-12-08T16:04:08.989Z,6.20
2022-12-08T16:09:13.388Z,6.10
2022-12-08T16:12:10.156Z,6.10
2022-12-08T16:17:28.844Z,6.00
2022-12-08T16:19:57.632Z,6.10
2022-12-08T16:22:56.392Z,6.30
2022-12-08T16:25:19.755Z,6.10
2022-12-08T16:28:12.590Z,6.10
2022-12-08T16:30:42.886Z,6.10
2022-12-08T16:33:12.451Z,6.00
2022-12-08T16:35:42.015Z,5.90
2022-12-08T16:38:13.545Z,6.10
2022-12-08T16:40:58.483Z,6.10
2022-12-08T16:43:28.902Z,6.30
2022-12-08T16:45:57.395Z,6.20
2022-12-08T16:48:26.028Z,6.30
2022-12-08T16:50:55.457Z,6.00
2022-12-08T16:53:24.815Z,6.20
2022-12-08T16:55:53.485Z,6.20
2022-12-08T16:58:22.560Z,6.20
2022-12-08T17:00:55.404Z,6.00
2022-12-08T17:03:41.156Z,6.30
2022-12-08T17:06:13.344Z,6.20
2022-12-08T17:08:42.546Z,6.00
2022-12-08T17:11:13.057Z,6.10
2022-12-08T17:13:43.009Z,6.20
2022-12-08T17:16:16.658Z,6.10
2022-12-08T17:18:45.134Z,6.20
2022-12-08T17:21:14.859Z,6.20
2022-12-08T17:23:44.061Z,6.00
2022-12-08T17:26:13.683Z,6.10
2022-12-08T17:29:00.062Z,6.10
2022-12-08T17:31:33.767Z,6.00
2022-12-08T17:34:03.884Z,6.10
2022-12-08T17:36:33.320Z,6.20
2022-12-08T17:39:03.422Z,6.20
2022-12-08T17:41:32.107Z,6.00
2022-12-08T17:44:00.722Z,6.10
2022-12-08T17:46:30.660Z,6.00
2022-12-08T17:49:13.170Z,6.20
2022-12-08T17:51:44.156Z,6.00
2022-12-08T17:54:13.051Z,6.10
2022-12-08T17:56:41.537Z,6.10
2022-12-08T17:59:10.675Z,6.00
2022-12-08T18:01:41.018Z,6.00
2022-12-08T18:04:10.685Z,6.10
2022-12-08T18:06:41.891Z,6.00
2022-12-08T18:09:10.586Z,6.00
2022-12-08T18:11:39.061Z,6.10
2022-12-08T18:14:10.443Z,6.10
2022-12-08T18:16:42.605Z,6.10
2022-12-08T18:19:12.129Z,6.00
2022-12-08T18:21:41.063Z,6.20
2022-12-08T18:24:10.223Z,6.00
2022-12-08T18:26:38.656Z,5.80
2022-12-08T18:29:07.142Z,6.00
2022-12-08T18:31:35.737Z,6.10
2022-12-08T18:34:06.051Z,6.20
2022-12-08T18:36:34.655Z,5.90
2022-12-08T18:39:08.801Z,6.10
2022-12-08T18:41:39.454Z,6.00
2022-12-08T18:44:09.152Z,6.00
2022-12-08T18:46:37.492Z,6.10
2022-12-08T18:49:20.149Z,6.00
2022-12-08T18:51:48.710Z,6.30
2022-12-08T18:54:17.756Z,6.00
2022-12-08T18:56:46.797Z,5.90
2022-12-08T18:59:15.410Z,6.20
2022-12-08T19:01:44.147Z,6.00
2022-12-08T19:04:29.888Z,6.00
2022-12-08T19:06:59.567Z,6.10
2022-12-08T19:09:28.996Z,6.10
2022-12-08T19:11:58.135Z,6.00
2022-12-08T19:14:28.682Z,6.00
2022-12-08T19:16:57.893Z,6.10
2022-12-08T19:19:29.088Z,6.20
2022-12-08T19:21:58.029Z,6.10
2022-12-08T19:24:28.300Z,6.10
2022-12-08T19:26:57.087Z,5.90
2022-12-08T19:29:25.690Z,6.00
2022-12-08T19:31:54.392Z,6.10
2022-12-08T19:34:26.747Z,6.20
2022-12-08T19:36:57.424Z,6.10
2022-12-08T19:39:43.896Z,6.10
2022-12-08T19:42:35.081Z,6.10
2022-12-08T19:45:08.628Z,5.90
2022-12-08T19:47:38.329Z,6.10
2022-12-08T19:50:26.825Z,6.10
2022-12-08T19:52:57.449Z,6.10
2022-12-08T19:55:26.900Z,6.10
2022-12-08T19:57:56.733Z,6.00
2022-12-08T20:00:25.501Z,6.00
2022-12-08T20:02:54.882Z,6.00
2022-12-08T20:05:24.124Z,6.20
2022-12-08T20:07:55.690Z,6.00
2022-12-08T20:10:28.316Z,6.00
2022-12-08T20:13:17.146Z,6.10
2022-12-08T20:15:46.597Z,6.00
2022-12-08T20:18:18.909Z,6.10
2022-12-08T20:20:48.136Z,6.10
2022-12-08T20:23:17.939Z,6.00
2022-12-08T20:25:48.645Z,6.10
2022-12-08T20:28:19.836Z,6.20
2022-12-08T20:30:49.399Z,6.20
2022-12-08T20:33:20.793Z,6.20
2022-12-08T20:35:59.811Z,6.30
2022-12-08T20:38:28.902Z,6.30
2022-12-08T20:40:59.372Z,6.10
2022-12-08T20:43:28.120Z,5.90
2022-12-08T20:45:56.551Z,6.20
2022-12-08T20:48:25.149Z,6.20
2022-12-08T20:50:55.052Z,6.20
2022-12-08T20:53:23.715Z,6.10
2022-12-08T20:55:54.302Z,6.00
2022-12-08T20:58:24.654Z,6.00
2022-12-08T21:00:53.539Z,6.00
2022-12-08T21:03:22.934Z,6.00
2022-12-08T21:05:52.850Z,6.00
2022-12-08T21:08:24.891Z,6.20
2022-12-08T21:10:55.741Z,6.00
2022-12-08T21:13:25.593Z,6.10
2022-12-08T21:15:54.561Z,6.10
2022-12-08T21:18:23.303Z,6.10
2022-12-08T21:20:53.193Z,6.20
2022-12-08T21:23:23.273Z,6.10
2022-12-08T21:25:52.333Z,6.10
2022-12-08T21:28:20.892Z,6.00
2022-12-08T21:30:50.759Z,5.90
2022-12-08T21:33:19.296Z,6.10
2022-12-08T21:35:48.262Z,6.00
2022-12-08T21:38:17.523Z,6.00
2022-12-08T21:40:46.049Z,6.00
2022-12-08T21:43:14.624Z,6.00
2022-12-08T21:45:43.336Z,5.90
2022-12-08T21:48:13.389Z,6.00
2022-12-08T21:50:42.751Z,6.00
2022-12-08T21:53:12.509Z,6.10
2022-12-08T21:55:42.254Z,6.00
2022-12-08T21:58:11.283Z,5.90
2022-12-08T22:00:41.401Z,5.90
2022-12-08T22:03:15.570Z,6.00
2022-12-08T22:05:44.374Z,5.80
2022-12-08T22:08:12.854Z,6.00
2022-12-08T22:10:41.969Z,6.00
2022-12-08T22:13:10.311Z,5.80
2022-12-08T22:15:38.981Z,6.10
2022-12-08T22:18:08.553Z,6.00
2022-12-08T22:20:44.172Z,6.10
2022-12-08T22:23:14.864Z,6.00
2022-12-08T22:25:44.138Z,6.00
2022-12-08T22:28:13.341Z,6.00
2022-12-08T22:30:42.373Z,5.90
2022-12-08T22:33:10.909Z,6.00
2022-12-08T22:35:41.378Z,6.00
2022-12-08T22:38:10.039Z,6.20
2022-12-08T22:40:41.560Z,6.20
2022-12-08T22:43:11.374Z,6.20
2022-12-08T22:45:40.240Z,6.20
2022-12-08T22:48:09.052Z,6.20
2022-12-08T22:50:38.755Z,6.20
2022-12-08T22:53:09.333Z,6.20
2022-12-08T22:55:42.468Z,6.00
2022-12-08T22:58:11.408Z,6.20
2022-12-08T23:00:40.191Z,6.30
2022-12-08T23:03:08.900Z,6.30
2022-12-08T23:05:39.254Z,6.20
2022-12-08T23:08:10.244Z,6.00
2022-12-08T23:10:41.477Z,6.10
2022-12-08T23:13:13.717Z,6.10
2022-12-08T23:15:42.362Z,6.20
2022-12-08T23:18:15.824Z,6.30
2022-12-08T23:20:45.167Z,6.10
2022-12-08T23:23:15.807Z,5.90
2022-12-08T23:25:44.851Z,6.10
2022-12-08T23:28:13.500Z,6.30
2022-12-08T23:30:42.317Z,6.20
2022-12-08T23:37:10.879Z,6.20
2022-12-08T23:39:53.227Z,6.10
2022-12-08T23:42:22.123Z,6.00
2022-12-08T23:44:50.777Z,6.00
2022-12-08T23:47:19.617Z,5.90
2022-12-08T23:49:48.723Z,6.20
2022-12-08T23:52:17.728Z,6.10
2022-12-08T23:54:52.723Z,6.10
2022-12-08T23:57:22.145Z,6.10
2022-12-08T23:59:51.121Z,6.20
